»·PEaware :: N198JT KLAS-KGCN

N198JT :: KLAS-KGCN

FLIGHT INFORMATION

Flight Status: Arrived
Operator: Privately registered:
United States
More flights under this callsign
Pilot: Jeremy T. (18871)
Aircraft: PIPER PA-24 COMMANCHE
(PA24)
More flights by this aircraft type
Origin: KLAS McCarran Intl
United States
Destination: KGCN Grand Canyon Natl Park
United States
More flights between these airports :: More routes between these airports
Route: +LAS V562 PGS V208 GCN
File this flight plan on PilotEdge
Remarks: 19R
Altitude:
(Current/Filed)
9,000ft
Speed:
(Current/Filed)
150kts
Departed: 21-Jul-18 09:15 AM
Arrived: 21-Jul-18 10:24 AM
Distance/Time
Traveled:
147nm/1:09
Distance/Time
To Go:
Arrived

Flight Plot

Page will automatically refresh every two minutes.

Flight plan parsing failed; only flown route is shown


Map Options




Map Legend


Flown Route
Filed Route
Departure Airport
Arrival Airport
Navaid (VOR, NDB)
Fix

Horizontal Profiles

Position Reports

Time Latitude Longitude Heading Altitude Ground
Speed
21-Jul-18 08:56 36.081965 -115.170635 266 2184ft 0kts
21-Jul-18 08:57 36.081965 -115.170638 266 2184ft 0kts
21-Jul-18 08:58 36.081965 -115.170641 266 2184ft 0kts
21-Jul-18 08:59 36.081965 -115.170643 266 2184ft 0kts
21-Jul-18 09:00 36.081964 -115.170646 266 2184ft 0kts
21-Jul-18 09:01 36.081964 -115.170649 266 2184ft 0kts
21-Jul-18 09:02 36.081964 -115.170652 266 2184ft 0kts
21-Jul-18 09:03 36.081964 -115.170654 266 2184ft 0kts
21-Jul-18 09:04 36.081964 -115.170657 266 2184ft 0kts
21-Jul-18 09:05 36.081964 -115.170660 266 2184ft 0kts
21-Jul-18 09:06 36.081675 -115.170934 134 2184ft 8kts
21-Jul-18 09:07 36.084305 -115.167994 25 2184ft 20kts
21-Jul-18 09:08 36.088445 -115.165168 25 2184ft 15kts
21-Jul-18 09:09 36.092895 -115.162653 25 2184ft 21kts
21-Jul-18 09:10 36.098365 -115.159540 25 2184ft 18kts
21-Jul-18 09:11 36.099783 -115.157160 110 2184ft 0kts
21-Jul-18 09:12 36.099781 -115.157153 110 2184ft 0kts
21-Jul-18 09:13 36.099779 -115.157149 110 2184ft 0kts
21-Jul-18 09:14 36.099779 -115.157146 110 2184ft 0kts
21-Jul-18 09:15 36.099758 -115.157080 110 2184ft 2kts
21-Jul-18 09:16 36.094706 -115.159085 200 2196ft 78kts
21-Jul-18 09:17 36.068777 -115.174235 198 3156ft 104kts
21-Jul-18 09:18 36.038369 -115.177930 188 4016ft 111kts
21-Jul-18 09:19 36.007793 -115.183134 187 5215ft 114kts
21-Jul-18 09:20 35.976595 -115.188415 185 6429ft 114kts
21-Jul-18 09:21 35.947709 -115.177877 107 6961ft 130kts
21-Jul-18 09:22 35.941308 -115.132947 101 7749ft 135kts
21-Jul-18 09:23 35.932973 -115.089798 107 8655ft 121kts
21-Jul-18 09:24 35.925155 -115.048993 106 9205ft 121kts
21-Jul-18 09:25 35.916891 -115.008175 108 9969ft 120kts
21-Jul-18 09:26 35.909587 -114.967657 107 10656ft 122kts
21-Jul-18 09:27 35.900640 -114.924628 109 11029ft 150kts
21-Jul-18 09:28 35.890984 -114.872936 106 10994ft 157kts
21-Jul-18 09:29 35.881277 -114.822676 109 10999ft 146kts
21-Jul-18 09:30 35.871369 -114.772173 107 11024ft 160kts
21-Jul-18 09:31 35.860901 -114.718474 107 11024ft 162kts
21-Jul-18 09:32 35.850255 -114.664615 106 11022ft 163kts
21-Jul-18 09:33 35.839760 -114.610376 107 11020ft 163kts
21-Jul-18 09:34 35.829318 -114.557211 107 11027ft 156kts
21-Jul-18 09:35 35.818953 -114.504111 108 11047ft 163kts
21-Jul-18 09:36 35.807199 -114.449873 106 11041ft 164kts
21-Jul-18 09:37 35.797650 -114.395062 106 11043ft 164kts
21-Jul-18 09:38 35.786345 -114.341627 108 11048ft 159kts
21-Jul-18 09:39 35.776449 -114.288828 106 11055ft 159kts
21-Jul-18 09:40 35.766108 -114.237009 107 11061ft 153kts
21-Jul-18 09:41 35.755944 -114.186503 107 11063ft 150kts
21-Jul-18 09:42 35.745995 -114.136600 107 11068ft 150kts
21-Jul-18 09:43 35.735439 -114.087172 107 11079ft 149kts
21-Jul-18 09:44 35.725668 -114.037335 106 11085ft 150kts
21-Jul-18 09:45 35.716171 -113.987429 108 11089ft 149kts
21-Jul-18 09:46 35.705871 -113.937716 107 11097ft 149kts
21-Jul-18 09:47 35.695586 -113.888705 107 11155ft 147kts
21-Jul-18 09:48 35.685266 -113.838433 110 10995ft 157kts
21-Jul-18 09:49 35.674201 -113.787190 101 10984ft 153kts
21-Jul-18 09:50 35.665441 -113.736369 110 10975ft 151kts
21-Jul-18 09:51 35.653817 -113.686754 106 10978ft 152kts
21-Jul-18 09:52 35.644026 -113.636570 108 10990ft 150kts
21-Jul-18 09:53 35.633181 -113.586852 107 11009ft 151kts
21-Jul-18 09:54 35.627446 -113.536007 73 10972ft 157kts
21-Jul-18 09:55 35.641774 -113.486548 78 11018ft 154kts
21-Jul-18 09:56 35.651792 -113.435794 78 11053ft 152kts
21-Jul-18 09:57 35.664533 -113.385870 74 11066ft 153kts
21-Jul-18 09:58 35.676720 -113.335741 77 11071ft 152kts
21-Jul-18 09:59 35.689011 -113.285595 74 11078ft 153kts
21-Jul-18 10:00 35.701523 -113.235293 76 10998ft 158kts
21-Jul-18 10:01 35.713554 -113.183259 74 10900ft 156kts
21-Jul-18 10:02 35.726714 -113.132818 75 10904ft 153kts
21-Jul-18 10:03 35.738194 -113.082376 76 10909ft 152kts
21-Jul-18 10:04 35.750969 -113.032648 75 10916ft 153kts
21-Jul-18 10:05 35.762593 -112.982342 76 10939ft 152kts
21-Jul-18 10:06 35.775499 -112.932648 74 10946ft 152kts
21-Jul-18 10:07 35.787060 -112.882612 76 10952ft 152kts
21-Jul-18 10:08 35.798622 -112.832354 75 10968ft 154kts
21-Jul-18 10:09 35.811152 -112.780894 76 10972ft 157kts
21-Jul-18 10:10 35.823394 -112.728922 74 10977ft 158kts
21-Jul-18 10:11 35.835973 -112.678034 75 10977ft 153kts
21-Jul-18 10:12 35.847653 -112.626884 75 10982ft 155kts
21-Jul-18 10:13 35.860199 -112.573739 78 10985ft 164kts
21-Jul-18 10:14 35.871742 -112.518559 77 10984ft 166kts
21-Jul-18 10:15 35.884037 -112.464446 76 10992ft 162kts
21-Jul-18 10:16 35.895706 -112.408287 76 10503ft 174kts
21-Jul-18 10:17 35.909278 -112.349391 75 9664ft 177kts
21-Jul-18 10:18 35.921112 -112.292424 75 8721ft 172kts
21-Jul-18 10:19 35.933471 -112.237630 71 8114ft 160kts
21-Jul-18 10:20 35.946968 -112.189181 54 7808ft 136kts
21-Jul-18 10:21 35.973675 -112.163326 30 7770ft 113kts
21-Jul-18 10:22 35.995697 -112.138402 74 7576ft 110kts
21-Jul-18 10:23 35.976132 -112.121120 213 7049ft 95kts
21-Jul-18 10:24 35.958007 -112.140860 223 6617ft 63kts
21-Jul-18 10:25 35.951900 -112.146294 128 6612ft 4kts
21-Jul-18 10:26 35.951738 -112.146007 108 6612ft 12kts
21-Jul-18 10:27 35.954538 -112.142889 40 6612ft 13kts
21-Jul-18 10:28 35.957530 -112.139733 40 6612ft 14kts
21-Jul-18 10:29 35.960590 -112.136501 40 6612ft 14kts
21-Jul-18 10:30 35.960967 -112.135162 215 6612ft 0kts
21-Jul-18 10:31 35.960965 -112.135165 215 6612ft 0kts
21-Jul-18 10:32 35.960923 -112.135211 224 6612ft 1kts
21-Jul-18 10:33 35.960938 -112.135204 220 6612ft 0kts
21-Jul-18 10:34 35.960938 -112.135204 220 6612ft 0kts

Navigation Log

Ident Type
Flight plan parsing failed, navigation log unavailable